createdAt,value
2023-01-21T00:00:39.289Z,101021.63
2023-01-21T00:01:41.500Z,101021.50
2023-01-21T00:02:43.742Z,101015.38
2023-01-21T00:03:46.439Z,101018.91
2023-01-21T00:04:48.823Z,101018.09
2023-01-21T00:05:51.156Z,101023.53
2023-01-21T00:06:53.352Z,101024.34
2023-01-21T00:07:55.563Z,101020.81
2023-01-21T00:08:59.430Z,101026.06
2023-01-21T00:10:02.421Z,101022.50
2023-01-21T00:11:15.204Z,101030.81
2023-01-21T00:12:17.417Z,101031.84
2023-01-21T00:13:19.698Z,101030.97
2023-01-21T00:14:21.924Z,101028.25
2023-01-21T00:15:24.132Z,101023.00
2023-01-21T00:16:26.280Z,101029.31
2023-01-21T00:17:35.388Z,101029.31
2023-01-21T00:18:37.574Z,101030.97
2023-01-21T00:19:40.009Z,101036.41
2023-01-21T00:20:42.269Z,101033.88
2023-01-21T00:21:46.769Z,101029.44
2023-01-21T00:22:49.052Z,101038.63
2023-01-21T00:23:51.229Z,101035.91
2023-01-21T00:24:53.440Z,101035.91
2023-01-21T00:26:00.870Z,101036.75
2023-01-21T00:27:03.100Z,101030.50
2023-01-21T00:28:05.619Z,101040.50
2023-01-21T00:29:07.932Z,101037.13
2023-01-21T00:30:10.889Z,101038.13
2023-01-21T00:31:13.182Z,101035.59
2023-01-21T00:32:15.433Z,101040.16
2023-01-21T00:33:19.858Z,101043.03
2023-01-21T00:34:24.537Z,101044.91
2023-01-21T00:35:26.751Z,101042.22
2023-01-21T00:36:29.886Z,101039.50
2023-01-21T00:37:32.038Z,101036.94
2023-01-21T00:38:34.312Z,101044.91
2023-01-21T00:39:36.560Z,101039.50
2023-01-21T00:40:38.813Z,101036.78
2023-01-21T00:41:41.134Z,101041.19
2023-01-21T00:42:43.368Z,101039.50
2023-01-21T00:43:45.596Z,101041.50
2023-01-21T00:44:48.597Z,101031.66
2023-01-21T00:45:50.790Z,101046.09
2023-01-21T00:46:53.808Z,101039.66
2023-01-21T00:47:56.035Z,101038.13
2023-01-21T00:48:58.212Z,101040.84
2023-01-21T00:50:00.391Z,101045.41
2023-01-21T00:51:06.035Z,101043.72
2023-01-21T00:52:08.322Z,101047.28
2023-01-21T00:53:10.803Z,101045.41
2023-01-21T00:54:13.020Z,101037.44
2023-01-21T00:55:18.207Z,101049.13
2023-01-21T00:56:20.646Z,101048.31
2023-01-21T00:57:23.028Z,101049.31
2023-01-21T00:58:25.365Z,101046.59
2023-01-21T00:59:28.392Z,101049.31
2023-01-21T01:00:30.588Z,101040.53
2023-01-21T01:01:37.289Z,101045.06
2023-01-21T01:02:41.890Z,101047.97
2023-01-21T01:03:45.300Z,101047.97
2023-01-21T01:04:47.531Z,101053.56
2023-01-21T01:05:49.712Z,101052.56
2023-01-21T01:06:54.679Z,101050.84
2023-01-21T01:07:56.837Z,101057.28
2023-01-21T01:08:59.255Z,101058.13
2023-01-21T01:10:01.497Z,101057.47
2023-01-21T01:11:06.823Z,101053.06
2023-01-21T01:12:09.589Z,101059.50
2023-01-21T01:13:11.815Z,101064.91
2023-01-21T01:14:16.998Z,101068.69
2023-01-21T01:15:19.597Z,101067.81
2023-01-21T01:16:22.817Z,101066.09
2023-01-21T01:17:25.030Z,101066.97
2023-01-21T01:18:28.444Z,101067.97
2023-01-21T01:19:30.633Z,101062.38
2023-01-21T01:20:32.810Z,101062.38
2023-01-21T01:25:42.160Z,101057.63
2023-01-21T01:26:44.370Z,101060.34
2023-01-21T01:27:46.545Z,101064.09
2023-01-21T01:28:49.759Z,101060.69
2023-01-21T01:29:51.987Z,101059.84
2023-01-21T01:30:55.367Z,101063.56
2023-01-21T01:31:57.678Z,101059.16
2023-01-21T01:33:00.157Z,101057.44
2023-01-21T01:34:02.389Z,101062.22
2023-01-21T01:35:05.190Z,101062.88
2023-01-21T01:36:12.605Z,101066.59
2023-01-21T01:37:14.784Z,101061.19
2023-01-21T01:38:22.721Z,101060.16
2023-01-21T01:39:27.351Z,101061.19
2023-01-21T01:40:33.003Z,101058.63
2023-01-21T01:41:35.553Z,101065.94
2023-01-21T01:42:37.820Z,101057.81
2023-01-21T01:43:59.255Z,101054.06
2023-01-21T01:45:24.102Z,101056.09
2023-01-21T01:46:30.010Z,101057.97
2023-01-21T01:47:42.625Z,101059.81
2023-01-21T01:48:48.852Z,101062.34
2023-01-21T01:49:54.199Z,101059.66
2023-01-21T01:51:00.344Z,101059.81
2023-01-21T01:52:06.277Z,101066.25
2023-01-21T01:53:11.143Z,101063.53
2023-01-21T01:54:16.551Z,101060.00
2023-01-21T01:55:18.847Z,101063.72
2023-01-21T01:56:21.743Z,101061.88
2023-01-21T01:57:34.308Z,101063.72
2023-01-21T01:58:37.858Z,101065.59
2023-01-21T01:59:41.042Z,101067.28
2023-01-21T02:00:45.957Z,101062.03
2023-01-21T02:01:48.530Z,101063.72
2023-01-21T02:03:09.778Z,101069.13
2023-01-21T02:04:17.191Z,101067.28
2023-01-21T02:05:22.209Z,101072.91
2023-01-21T02:06:24.371Z,101073.72
2023-01-21T02:07:29.039Z,101075.44
2023-01-21T02:08:33.391Z,101081.88
2023-01-21T02:09:38.644Z,101077.28
2023-01-21T02:10:42.602Z,101082.03
2023-01-21T02:11:47.764Z,101075.59
2023-01-21T02:12:50.041Z,101074.75
2023-01-21T02:13:56.983Z,101070.19
2023-01-21T02:14:59.370Z,101077.44
2023-01-21T02:16:41.153Z,101071.19
2023-01-21T02:17:57.311Z,101074.91
2023-01-21T02:19:21.209Z,101077.63
2023-01-21T02:20:57.932Z,101077.63
2023-01-21T02:22:19.143Z,101082.03
2023-01-21T02:23:59.284Z,101085.06
2023-01-21T02:25:32.579Z,101086.09
2023-01-21T02:26:56.014Z,101085.25
2023-01-21T02:28:26.936Z,101097.09
2023-01-21T02:30:00.263Z,101085.59
2023-01-21T02:31:30.248Z,101088.31
2023-01-21T02:32:47.084Z,101083.88
2023-01-21T02:34:14.621Z,101082.19
2023-01-21T02:35:21.791Z,101075.06
2023-01-21T02:36:37.817Z,101084.06
2023-01-21T02:37:51.962Z,101085.06
2023-01-21T02:39:09.273Z,101088.63
2023-01-21T02:40:36.810Z,101100.50
2023-01-21T02:41:59.208Z,101087.94
2023-01-21T02:43:41.481Z,101098.78
2023-01-21T02:45:02.040Z,101101.50
2023-01-21T02:46:16.501Z,101093.38
2023-01-21T02:47:31.726Z,101094.38
2023-01-21T02:48:42.535Z,101096.25
2023-01-21T02:49:46.914Z,101097.25
2023-01-21T02:50:53.854Z,101100.81
2023-01-21T02:51:56.048Z,101088.25
2023-01-21T02:53:00.539Z,101097.44
2023-01-21T02:54:43.490Z,101100.16
2023-01-21T02:55:48.427Z,101103.88
2023-01-21T02:56:50.626Z,101103.00
2023-01-21T02:57:58.062Z,101108.41
2023-01-21T02:59:03.784Z,101102.16
2023-01-21T03:00:20.545Z,101099.44
2023-01-21T03:01:49.739Z,101106.06
2023-01-21T03:03:01.190Z,101106.22
2023-01-21T03:04:26.938Z,101108.94
2023-01-21T03:05:59.287Z,101108.09
2023-01-21T03:07:08.280Z,101113.53
2023-01-21T03:08:21.095Z,101114.53
2023-01-21T03:09:29.932Z,101110.94
2023-01-21T03:10:48.848Z,101118.25
2023-01-21T03:12:01.324Z,101116.38
2023-01-21T03:13:57.433Z,101117.41
2023-01-21T03:15:27.841Z,101115.53
2023-01-21T03:17:02.241Z,101108.41
2023-01-21T03:18:31.301Z,101116.53
2023-01-21T03:20:06.935Z,101119.44
2023-01-21T03:21:24.147Z,101118.59
2023-01-21T03:22:31.525Z,101117.72
2023-01-21T03:23:39.019Z,101115.88
2023-01-21T03:24:43.802Z,101124.16
2023-01-21T03:25:47.241Z,101121.31
2023-01-21T03:26:52.619Z,101115.00
2023-01-21T03:27:56.611Z,101117.72
2023-01-21T03:29:03.649Z,101116.88
2023-01-21T03:30:13.685Z,101115.00
2023-01-21T03:31:30.374Z,101120.44
2023-01-21T03:32:38.040Z,101119.59
2023-01-21T03:33:46.829Z,101120.44
2023-01-21T03:34:53.761Z,101117.72
2023-01-21T03:35:58.002Z,101117.88
2023-01-21T03:37:07.853Z,101120.59
2023-01-21T03:38:12.721Z,101121.44
2023-01-21T03:39:42.587Z,101118.72
2023-01-21T03:41:08.311Z,101126.72
2023-01-21T03:42:10.979Z,101126.03
2023-01-21T03:43:13.181Z,101120.59
2023-01-21T03:44:15.396Z,101123.31
2023-01-21T03:45:26.698Z,101127.72
2023-01-21T03:47:07.463Z,101127.03
2023-01-21T03:48:26.550Z,101129.75
2023-01-21T03:49:35.014Z,101132.63
2023-01-21T03:50:50.888Z,101133.31
2023-01-21T03:51:57.189Z,101134.50
2023-01-21T03:52:59.493Z,101138.88
2023-01-21T03:54:01.698Z,101138.03
2023-01-21T03:55:04.885Z,101136.34
2023-01-21T03:56:07.358Z,101132.78
2023-01-21T03:57:09.538Z,101141.75
2023-01-21T03:58:11.731Z,101139.06
2023-01-21T03:59:13.902Z,101138.22
2023-01-21T04:00:17.029Z,101144.47
2023-01-21T04:01:22.401Z,101144.47
2023-01-21T04:02:24.710Z,101144.47
2023-01-21T04:03:26.940Z,101142.63
2023-01-21T04:04:29.138Z,101142.63
2023-01-21T04:05:31.301Z,101144.47
2023-01-21T04:06:33.688Z,101139.06
2023-01-21T04:07:38.915Z,101139.91
2023-01-21T04:08:41.211Z,101134.50
2023-01-21T04:09:46.772Z,101142.47
2023-01-21T04:10:48.999Z,101135.34
2023-01-21T04:11:51.190Z,101129.91
2023-01-21T04:12:53.348Z,101142.47
2023-01-21T04:13:55.578Z,101138.75
2023-01-21T04:14:58.351Z,101134.16
2023-01-21T04:16:00.556Z,101138.75
2023-01-21T04:17:04.385Z,101137.72
2023-01-21T04:18:06.828Z,101140.41
2023-01-21T04:19:09.144Z,101144.00
2023-01-21T04:20:12.062Z,101142.13
2023-01-21T04:21:14.620Z,101135.00
2023-01-21T04:22:16.869Z,101146.88
2023-01-21T04:23:19.135Z,101138.56
2023-01-21T04:24:21.313Z,101150.25
2023-01-21T04:25:23.481Z,101152.97
2023-01-21T04:26:25.686Z,101148.56
2023-01-21T04:27:27.892Z,101149.59
2023-01-21T04:28:30.069Z,101146.72
2023-01-21T04:29:32.246Z,101152.97
2023-01-21T04:30:39.388Z,101157.38
2023-01-21T04:31:41.569Z,101152.97
2023-01-21T04:32:43.835Z,101147.53
2023-01-21T04:33:46.066Z,101150.25
2023-01-21T04:34:48.226Z,101151.25
2023-01-21T04:35:50.393Z,101151.13
2023-01-21T04:36:52.595Z,101157.56
2023-01-21T04:37:54.767Z,101156.69
2023-01-21T04:39:00.008Z,101164.81
2023-01-21T04:40:02.323Z,101164.00
2023-01-21T04:41:04.606Z,101163.16
2023-01-21T04:42:06.803Z,101157.72
2023-01-21T04:43:09.079Z,101154.16
2023-01-21T04:44:14.147Z,101149.59
2023-01-21T04:45:19.265Z,101160.44
2023-01-21T04:46:21.461Z,101156.69
2023-01-21T04:47:23.725Z,101156.69
2023-01-21T04:48:25.897Z,101155.00
2023-01-21T04:49:31.585Z,101147.88
2023-01-21T04:50:33.739Z,101156.84
2023-01-21T04:51:35.913Z,101157.03
2023-01-21T04:52:38.960Z,101157.03
2023-01-21T04:53:41.118Z,101157.03
2023-01-21T04:54:43.621Z,101155.31
2023-01-21T04:55:45.816Z,101153.47
2023-01-21T04:56:48.061Z,101153.63
2023-01-21T04:57:50.227Z,101160.75
2023-01-21T04:58:52.454Z,101153.63
2023-01-21T04:59:54.636Z,101150.06
2023-01-21T05:00:56.844Z,101155.31
2023-01-21T05:01:59.058Z,101157.19
2023-01-21T05:03:01.292Z,101159.03
2023-01-21T05:04:03.727Z,101157.50
2023-01-21T05:05:06.494Z,101157.66
2023-01-21T05:06:08.737Z,101155.81
2023-01-21T05:07:11.988Z,101161.56
2023-01-21T05:08:16.832Z,101161.56
2023-01-21T05:09:19.038Z,101163.25
2023-01-21T05:10:24.291Z,101171.56
2023-01-21T05:11:26.478Z,101159.84
2023-01-21T05:12:34.404Z,101167.84
2023-01-21T05:13:36.603Z,101171.72
2023-01-21T05:14:38.856Z,101169.03
2023-01-21T05:15:41.112Z,101170.03
2023-01-21T05:16:46.244Z,101174.44
2023-01-21T05:17:48.435Z,101172.72
2023-01-21T05:18:50.623Z,101172.72
2023-01-21T05:19:52.776Z,101173.56
2023-01-21T05:20:55.896Z,101180.88
2023-01-21T05:21:58.059Z,101180.03
2023-01-21T05:23:00.325Z,101172.03
2023-01-21T05:24:02.706Z,101180.16
2023-01-21T05:25:05.568Z,101172.91
2023-01-21T05:26:10.499Z,101171.03
2023-01-21T05:27:12.672Z,101174.75
2023-01-21T05:28:14.877Z,101179.31
2023-01-21T05:29:17.230Z,101171.19
2023-01-21T05:30:20.156Z,101179.31
2023-01-21T05:31:22.386Z,101183.91
2023-01-21T05:32:24.880Z,101186.63
2023-01-21T05:33:32.045Z,101185.75
2023-01-21T05:34:34.231Z,101184.91
2023-01-21T05:35:36.560Z,101186.63
2023-01-21T05:36:39.622Z,101177.63
2023-01-21T05:37:43.655Z,101177.78
2023-01-21T05:38:45.857Z,101178.63
2023-01-21T05:39:48.101Z,101182.38
2023-01-21T05:40:50.362Z,101184.06
2023-01-21T05:41:52.574Z,101179.78
2023-01-21T05:42:54.809Z,101180.66
2023-01-21T05:43:57.014Z,101181.50
2023-01-21T05:45:01.539Z,101184.38
2023-01-21T05:46:04.075Z,101183.38
2023-01-21T05:47:08.779Z,101184.22
2023-01-21T05:48:10.968Z,101186.94
2023-01-21T05:49:13.392Z,101185.22
2023-01-21T05:50:18.116Z,101180.66
2023-01-21T05:51:20.531Z,101181.66
2023-01-21T05:52:22.722Z,101177.09
2023-01-21T05:53:26.416Z,101174.38
2023-01-21T05:54:28.568Z,101177.25
2023-01-21T05:55:30.864Z,101170.81
2023-01-21T05:56:33.070Z,101176.41
2023-01-21T05:57:35.374Z,101185.38
2023-01-21T05:58:37.601Z,101181.66
2023-01-21T05:59:39.762Z,101177.25
2023-01-21T06:00:49.584Z,101177.25
2023-01-21T06:01:51.830Z,101175.41
2023-01-21T06:02:54.071Z,101178.13
2023-01-21T06:03:56.340Z,101176.25
2023-01-21T06:04:58.580Z,101180.84
2023-01-21T06:06:00.787Z,101181.84
2023-01-21T06:07:06.070Z,101182.69
2023-01-21T06:08:09.218Z,101184.56
2023-01-21T06:09:11.450Z,101180.13
2023-01-21T06:10:13.737Z,101191.81
2023-01-21T06:11:15.919Z,101183.69
2023-01-21T06:12:18.127Z,101182.00
2023-01-21T06:13:26.670Z,101188.25
2023-01-21T06:14:29.087Z,101189.09
2023-01-21T06:15:33.762Z,101190.13
2023-01-21T06:16:36.019Z,101189.97
2023-01-21T06:17:41.051Z,101196.22
2023-01-21T06:18:43.277Z,101190.81
2023-01-21T06:19:45.449Z,101193.34
2023-01-21T06:20:48.639Z,101188.97
2023-01-21T06:21:52.463Z,101191.69
2023-01-21T06:22:54.690Z,101191.69
2023-01-21T06:23:57.581Z,101195.22
2023-01-21T06:24:59.778Z,101193.53
2023-01-21T06:26:02.509Z,101189.81
2023-01-21T06:27:07.013Z,101190.81
2023-01-21T06:28:12.358Z,101200.66
2023-01-21T06:29:17.404Z,101194.38
2023-01-21T06:30:22.176Z,101193.53
2023-01-21T06:31:24.717Z,101194.53
2023-01-21T06:32:27.011Z,101186.38
2023-01-21T06:33:29.212Z,101191.69
2023-01-21T06:34:31.414Z,101195.38
2023-01-21T06:35:33.692Z,101197.09
2023-01-21T06:36:38.744Z,101202.66
2023-01-21T06:37:41.038Z,101198.94
2023-01-21T06:38:43.235Z,101204.34
2023-01-21T06:39:45.431Z,101197.94
2023-01-21T06:40:47.592Z,101201.66
2023-01-21T06:41:49.765Z,101195.38
2023-01-21T06:42:51.920Z,101189.81
2023-01-21T06:43:54.117Z,101197.94
2023-01-21T06:44:56.314Z,101190.81
2023-01-21T06:45:58.511Z,101195.22
2023-01-21T06:47:01.689Z,101191.69
2023-01-21T06:48:04.479Z,101198.09
2023-01-21T06:49:06.671Z,101203.53
2023-01-21T06:50:11.407Z,101198.94
2023-01-21T06:51:13.631Z,101195.22
2023-01-21T06:52:15.813Z,101197.78
2023-01-21T06:53:18.555Z,101202.34
2023-01-21T06:54:20.694Z,101205.06
2023-01-21T06:55:23.030Z,101196.06
2023-01-21T06:56:27.840Z,101201.47
2023-01-21T06:57:30.824Z,101203.34
2023-01-21T06:58:32.999Z,101211.50
2023-01-21T06:59:35.309Z,101203.19
2023-01-21T07:00:37.592Z,101210.47
2023-01-21T07:01:39.769Z,101210.47
2023-01-21T07:02:41.995Z,101208.63
2023-01-21T07:03:44.498Z,101211.31
2023-01-21T07:04:48.415Z,101212.03
2023-01-21T07:05:50.651Z,101211.31
2023-01-21T07:06:52.805Z,101207.78
2023-01-21T07:07:55.951Z,101211.31
2023-01-21T07:08:58.223Z,101212.19
2023-01-21T07:10:00.454Z,101210.31
2023-01-21T07:11:04.383Z,101214.72
2023-01-21T07:12:06.788Z,101213.88
2023-01-21T07:13:08.965Z,101218.28
2023-01-21T07:14:11.223Z,101212.03
2023-01-21T07:15:13.696Z,101213.03
2023-01-21T07:16:15.909Z,101209.31
2023-01-21T07:17:18.154Z,101209.31
2023-01-21T07:18:20.396Z,101204.72
2023-01-21T07:19:22.724Z,101200.31
2023-01-21T07:20:26.063Z,101201.00
2023-01-21T07:21:28.285Z,101205.59
2023-01-21T07:22:30.569Z,101203.72
2023-01-21T07:23:32.736Z,101198.31
2023-01-21T07:24:34.914Z,101202.03
2023-01-21T07:25:39.846Z,101203.72
2023-01-21T07:26:43.628Z,101195.59
2023-01-21T07:27:45.813Z,101197.97
2023-01-21T07:28:48.028Z,101200.69
2023-01-21T07:29:50.219Z,101205.09
2023-01-21T07:30:55.124Z,101211.53
2023-01-21T07:31:57.451Z,101211.53
2023-01-21T07:33:06.122Z,101205.09
2023-01-21T07:34:08.363Z,101210.34
2023-01-21T07:35:10.749Z,101215.78
2023-01-21T07:36:12.942Z,101217.66
2023-01-21T07:37:15.159Z,101211.22
2023-01-21T07:38:17.609Z,101218.47
2023-01-21T07:39:19.778Z,101214.94
2023-01-21T07:40:22.033Z,101222.19
2023-01-21T07:41:24.359Z,101217.66
2023-01-21T07:42:26.863Z,101219.34
2023-01-21T07:43:29.070Z,101227.50
2023-01-21T07:44:31.338Z,101216.66
2023-01-21T07:45:33.572Z,101229.16
2023-01-21T07:46:36.280Z,101219.34
2023-01-21T07:47:38.572Z,101221.03
2023-01-21T07:48:40.727Z,101221.91
2023-01-21T07:49:45.571Z,101219.19
2023-01-21T07:50:47.876Z,101218.03
2023-01-21T07:51:50.151Z,101226.47
2023-01-21T07:52:55.549Z,101222.75
2023-01-21T07:53:58.688Z,101216.47
2023-01-21T07:55:01.854Z,101225.44
2023-01-21T07:56:09.751Z,101226.16
2023-01-21T07:57:11.984Z,101219.03
2023-01-21T07:58:14.219Z,101211.72
2023-01-21T07:59:16.381Z,101214.31
2023-01-21T08:00:19.057Z,101211.59
2023-01-21T08:01:23.255Z,101218.69
2023-01-21T08:02:27.499Z,101213.25
2023-01-21T08:03:30.077Z,101217.69
2023-01-21T08:04:32.267Z,101213.25
2023-01-21T08:05:34.435Z,101220.41
2023-01-21T08:06:41.560Z,101225.81
2023-01-21T08:07:43.780Z,101217.69
2023-01-21T08:08:45.961Z,101222.81
2023-01-21T08:09:48.131Z,101224.66
2023-01-21T08:10:57.291Z,101218.22
2023-01-21T08:12:02.653Z,101227.19
2023-01-21T08:13:04.873Z,101220.09
2023-01-21T08:14:07.096Z,101219.94
2023-01-21T08:15:10.191Z,101220.75
2023-01-21T08:16:13.797Z,101227.88
2023-01-21T08:17:16.001Z,101227.88
2023-01-21T08:18:19.350Z,101218.91
2023-01-21T08:19:21.561Z,101221.63
2023-01-21T08:20:26.428Z,101221.63
2023-01-21T08:21:28.585Z,101217.75
2023-01-21T08:22:30.780Z,101224.84
2023-01-21T08:23:33.041Z,101221.28
2023-01-21T08:24:35.258Z,101214.00
2023-01-21T08:25:39.686Z,101216.72
2023-01-21T08:26:41.853Z,101223.84
2023-01-21T08:27:44.032Z,101225.53
2023-01-21T08:28:46.255Z,101221.84
2023-01-21T08:29:48.706Z,101218.25
2023-01-21T08:30:50.990Z,101219.13
2023-01-21T08:31:53.687Z,101218.09
2023-01-21T08:32:55.902Z,101220.66
2023-01-21T08:33:59.100Z,101226.91
2023-01-21T08:35:01.304Z,101238.47
2023-01-21T08:36:06.209Z,101228.63
2023-01-21T08:37:08.405Z,101227.75
2023-01-21T08:38:10.638Z,101231.16
2023-01-21T08:39:15.070Z,101227.63
2023-01-21T08:40:17.268Z,101230.31
2023-01-21T08:41:19.583Z,101222.19
2023-01-21T08:42:21.821Z,101228.44
2023-01-21T08:43:25.046Z,101229.28
2023-01-21T08:44:27.299Z,101221.03
2023-01-21T08:45:29.956Z,101219.16
2023-01-21T08:46:32.165Z,101219.16
2023-01-21T08:47:34.387Z,101218.13
2023-01-21T08:48:38.401Z,101220.69
2023-01-21T08:49:40.600Z,101217.81
2023-01-21T08:50:43.071Z,101216.97
2023-01-21T08:51:45.263Z,101224.09
2023-01-21T08:52:55.291Z,101214.91
2023-01-21T08:53:57.698Z,101219.34
2023-01-21T08:55:07.167Z,101221.03
2023-01-21T08:56:09.341Z,101219.88
2023-01-21T08:57:12.485Z,101228.00
2023-01-21T08:58:14.757Z,101212.56
2023-01-21T08:59:17.165Z,101219.53
2023-01-21T09:00:20.317Z,101217.00
2023-01-21T09:01:22.718Z,101226.00
2023-01-21T09:02:26.081Z,101226.84
2023-01-21T09:03:29.975Z,101225.81
2023-01-21T09:04:32.327Z,101218.34
2023-01-21T09:05:34.663Z,101222.09
2023-01-21T09:06:36.859Z,101226.50
2023-01-21T09:07:39.164Z,101228.38
2023-01-21T09:08:42.217Z,101221.94
2023-01-21T09:09:44.427Z,101235.34
2023-01-21T09:11:01.654Z,101220.06
2023-01-21T09:12:06.471Z,101226.19
2023-01-21T09:13:09.981Z,101223.47
2023-01-21T09:14:12.266Z,101220.75
2023-01-21T09:15:14.632Z,101228.72
2023-01-21T09:16:19.868Z,101232.13
2023-01-21T09:17:22.967Z,101228.72
2023-01-21T09:18:25.542Z,101231.28
2023-01-21T09:19:27.776Z,101232.13
2023-01-21T09:20:29.997Z,101232.13
2023-01-21T09:21:34.999Z,101236.34
2023-01-21T09:22:37.162Z,101232.63
2023-01-21T09:23:40.568Z,101231.81
2023-01-21T09:24:42.783Z,101229.09
2023-01-21T09:25:45.006Z,101227.22
2023-01-21T09:26:47.358Z,101230.63
2023-01-21T09:27:49.587Z,101227.03
2023-01-21T09:29:01.901Z,101229.63
2023-01-21T09:30:04.427Z,101223.16
2023-01-21T09:31:10.173Z,101228.44
2023-01-21T09:32:12.391Z,101234.69
2023-01-21T09:33:16.178Z,101232.81
2023-01-21T09:34:18.415Z,101230.13
2023-01-21T09:35:20.605Z,101235.41
2023-01-21T09:36:25.972Z,101238.97
2023-01-21T09:37:28.191Z,101237.94
2023-01-21T09:38:31.069Z,101242.19
2023-01-21T09:39:33.301Z,101227.75
2023-01-21T09:40:35.877Z,101226.75
2023-01-21T09:41:54.385Z,101231.84
2023-01-21T09:42:58.203Z,101231.00
2023-01-21T09:44:32.212Z,101229.81
2023-01-21T09:45:34.623Z,101236.09
2023-01-21T09:46:44.606Z,101226.09
2023-01-21T09:47:50.215Z,101225.22
2023-01-21T09:48:53.397Z,101227.81
2023-01-21T09:50:04.124Z,101231.19
2023-01-21T09:51:18.655Z,101232.06
2023-01-21T09:52:46.745Z,101232.72
2023-01-21T09:53:53.160Z,101229.16
2023-01-21T09:54:57.327Z,101228.00
2023-01-21T09:56:05.376Z,101231.53
2023-01-21T09:57:26.220Z,101225.94
2023-01-21T09:58:48.302Z,101225.09
2023-01-21T10:00:17.283Z,101221.38
2023-01-21T10:01:34.813Z,101221.19
2023-01-21T10:02:45.082Z,101215.59
2023-01-21T10:04:06.891Z,101216.47
2023-01-21T10:05:34.087Z,101224.94
2023-01-21T10:06:48.585Z,101220.03
2023-01-21T10:08:02.071Z,101218.84
2023-01-21T10:09:25.939Z,101214.94
2023-01-21T10:10:48.410Z,101221.06
2023-01-21T10:12:20.986Z,101220.06
2023-01-21T10:13:42.786Z,101212.56
2023-01-21T10:14:54.421Z,101218.53
2023-01-21T10:16:20.209Z,101211.91
2023-01-21T10:17:40.025Z,101214.63
2023-01-21T10:18:46.586Z,101209.03
2023-01-21T10:20:11.175Z,101211.75
2023-01-21T10:21:28.736Z,101218.88
2023-01-21T10:22:31.135Z,101215.97
2023-01-21T10:23:43.523Z,101222.25
2023-01-21T10:24:53.799Z,101216.81
2023-01-21T10:25:59.452Z,101214.09
2023-01-21T10:27:02.071Z,101218.88
2023-01-21T10:28:13.573Z,101210.56
2023-01-21T10:29:23.398Z,101210.56
2023-01-21T10:30:35.203Z,101213.97
2023-01-21T10:31:44.863Z,101213.97
2023-01-21T10:32:52.139Z,101207.50
2023-01-21T10:33:55.101Z,101204.78
2023-01-21T10:34:57.930Z,101211.91
2023-01-21T10:36:35.315Z,101202.75
2023-01-21T10:37:51.068Z,101204.44
2023-01-21T10:39:21.062Z,101206.16
2023-01-21T10:40:44.465Z,101193.59
2023-01-21T10:42:22.010Z,101202.41
2023-01-21T10:43:46.884Z,101196.97
2023-01-21T10:45:24.107Z,101198.66
2023-01-21T10:47:08.390Z,101196.81
2023-01-21T10:48:18.496Z,101189.50
2023-01-21T10:49:53.963Z,101185.94
2023-01-21T10:51:13.331Z,101194.09
2023-01-21T10:52:39.653Z,101193.25
2023-01-21T10:53:53.792Z,101200.56
2023-01-21T10:55:05.290Z,101190.53
2023-01-21T10:56:13.771Z,101192.22
2023-01-21T10:57:24.741Z,101188.66
2023-01-21T10:58:33.089Z,101190.53
2023-01-21T10:59:38.278Z,101187.81
2023-01-21T11:00:50.464Z,101192.22
2023-01-21T11:02:05.997Z,101184.91
2023-01-21T11:03:30.236Z,101181.19
2023-01-21T11:04:33.810Z,101181.19
2023-01-21T11:05:38.040Z,101180.34
2023-01-21T11:06:40.835Z,101178.28
2023-01-21T11:07:47.428Z,101172.84
2023-01-21T11:08:54.498Z,101171.00
2023-01-21T11:09:56.788Z,101176.25
2023-01-21T11:10:59.965Z,101167.41
2023-01-21T11:12:03.105Z,101169.13
2023-01-21T11:13:05.938Z,101176.25
2023-01-21T11:14:08.396Z,101170.81
2023-01-21T11:15:15.302Z,101162.50
2023-01-21T11:16:35.151Z,101164.56
2023-01-21T11:17:40.424Z,101162.50
2023-01-21T11:18:43.036Z,101165.91
2023-01-21T11:19:58.376Z,101171.16
2023-01-21T11:21:03.990Z,101164.72
2023-01-21T11:22:29.114Z,101164.53
2023-01-21T11:23:36.757Z,101167.09
2023-01-21T11:24:44.651Z,101168.97
2023-01-21T11:25:49.178Z,101161.66
2023-01-21T11:26:53.699Z,101158.94
2023-01-21T11:27:56.559Z,101160.63
2023-01-21T11:29:19.686Z,101159.63
2023-01-21T11:30:49.032Z,101159.44
2023-01-21T11:32:05.509Z,101161.28
2023-01-21T11:33:37.113Z,101154.00
2023-01-21T11:34:48.160Z,101149.41
2023-01-21T11:35:52.674Z,101158.25
2023-01-21T11:37:05.476Z,101148.22
2023-01-21T11:38:24.641Z,101153.66
2023-01-21T11:39:30.183Z,101148.22
2023-01-21T11:40:32.466Z,101147.38
2023-01-21T11:41:35.044Z,101139.06
2023-01-21T11:42:47.859Z,101140.94
2023-01-21T11:43:55.677Z,101129.00
2023-01-21T11:45:26.714Z,101128.88
2023-01-21T11:46:40.774Z,101123.44
2023-01-21T11:47:53.996Z,101126.16
2023-01-21T11:49:17.761Z,101121.56
2023-01-21T11:50:39.928Z,101127.69
2023-01-21T11:51:44.829Z,101126.81
2023-01-21T11:52:47.029Z,101121.19
2023-01-21T11:53:49.356Z,101114.09
2023-01-21T11:54:54.275Z,101118.47
2023-01-21T11:56:02.981Z,101117.47
2023-01-21T11:57:05.482Z,101119.16
2023-01-21T11:58:17.809Z,101113.72
2023-01-21T11:59:39.302Z,101116.25
2023-01-21T12:00:47.073Z,101115.44
2023-01-21T12:02:05.487Z,101116.25
2023-01-21T12:03:15.088Z,101111.66
2023-01-21T12:04:17.398Z,101102.50
2023-01-21T12:05:29.583Z,101109.47
2023-01-21T12:06:32.208Z,101100.28
2023-01-21T12:07:42.582Z,101106.56
2023-01-21T12:08:50.341Z,101105.53
2023-01-21T12:10:30.374Z,101106.41
2023-01-21T12:11:32.910Z,101101.81
2023-01-21T12:12:59.482Z,101107.25
2023-01-21T12:14:19.014Z,101108.09
2023-01-21T12:15:39.843Z,101103.50
2023-01-21T12:17:02.220Z,101098.91
2023-01-21T12:18:29.375Z,101098.91
2023-01-21T12:20:15.897Z,101105.22
2023-01-21T12:21:29.613Z,101105.03
2023-01-21T12:22:47.666Z,101107.75
2023-01-21T12:24:08.417Z,101106.06
2023-01-21T12:25:25.914Z,101106.88
2023-01-21T12:26:45.655Z,101111.31
2023-01-21T12:28:10.776Z,101112.00
2023-01-21T12:29:49.853Z,101105.88
2023-01-21T12:30:58.915Z,101105.69
2023-01-21T12:32:16.676Z,101100.25
2023-01-21T12:33:33.373Z,101101.94
2023-01-21T12:34:42.426Z,101109.09
2023-01-21T12:35:49.372Z,101104.50
2023-01-21T12:36:57.170Z,101104.50
2023-01-21T12:38:05.113Z,101099.06
2023-01-21T12:39:32.214Z,101099.06
2023-01-21T12:40:41.130Z,101089.88
2023-01-21T12:41:47.139Z,101102.47
2023-01-21T12:42:56.214Z,101091.59
2023-01-21T12:44:26.223Z,101092.41
2023-01-21T12:45:49.231Z,101092.28
2023-01-21T12:46:59.608Z,101091.22
2023-01-21T12:48:21.333Z,101093.94
2023-01-21T12:49:53.138Z,101088.31
2023-01-21T12:51:07.062Z,101071.00
2023-01-21T12:52:19.034Z,101074.56
2023-01-21T12:53:36.430Z,101067.25